Time;durP1;ratioP1;P1;durP2;ratioP2;P2;SDS_P1;SDS_P2;PMS_P1;PMS_P2;Temp;Humidity;BMP_temperature;BMP_pressure;BME280_temperature;BME280_humidity;BME280_pressure;Samples;Min_cycle;Max_cycle;Signal;HPM_P1;HPM_P2
2022/12/25 05:37:47;;;;;;;21.17;6.57;;;15.40;71.10;;;;;;4843222;29;20076;-78
2022/12/25 05:40:12;;;;;;;22.52;6.07;;;15.40;70.60;;;;;;4830287;29;20371;-79
2022/12/25 05:42:38;;;;;;;14.63;5.70;;;15.50;70.60;;;;;;4846295;29;20082;-81
2022/12/25 05:45:04;;;;;;;13.88;6.00;;;15.60;70.60;;;;;;4845989;29;20054;-81
2022/12/25 05:47:30;;;;;;;20.65;6.85;;;15.60;70.50;;;;;;4845771;29;20049;-79
2022/12/25 05:49:56;;;;;;;15.45;5.78;;;15.60;70.30;;;;;;4829372;29;20050;-79
2022/12/25 05:52:22;;;;;;;12.32;5.60;;;15.60;70.30;;;;;;4843882;29;20054;-79
2022/12/25 05:54:47;;;;;;;10.20;5.93;;;15.60;70.20;;;;;;4844351;29;20053;-79
2022/12/25 05:57:13;;;;;;;16.65;5.40;;;15.70;70.10;;;;;;4844746;29;20045;-76
2022/12/25 05:59:39;;;;;;;10.68;5.53;;;15.70;70.10;;;;;;4851679;29;20458;-75
2022/12/25 06:02:04;;;;;;;14.82;4.97;;;15.70;69.80;;;;;;4861294;29;20064;-77
2022/12/25 06:04:35;;;;;;;15.55;5.13;;;15.70;69.70;;;;;;4845792;29;20049;-81
2022/12/25 06:07:10;;;;;;;13.27;5.75;;;15.80;69.70;;;;;;4830593;29;20046;-82
2022/12/25 06:09:36;;;;;;;14.88;6.25;;;15.80;69.60;;;;;;4814479;29;20336;-79
2022/12/25 06:12:02;;;;;;;14.80;5.78;;;15.90;69.30;;;;;;4828600;29;20413;-82
2022/12/25 06:14:28;;;;;;;13.82;6.20;;;15.90;69.10;;;;;;4827991;29;20077;-83
2022/12/25 06:16:53;;;;;;;13.00;5.53;;;16.00;69.00;;;;;;4845524;29;20085;-82
2022/12/25 06:19:20;;;;;;;15.15;6.18;;;16.00;68.80;;;;;;4814257;29;20204;-77
2022/12/25 06:21:51;;;;;;;13.32;6.38;;;16.10;68.80;;;;;;4844938;29;20548;-82
2022/12/25 06:24:17;;;;;;;14.25;6.95;;;16.10;68.70;;;;;;4845119;29;20053;-83
2022/12/25 06:26:43;;;;;;;14.80;6.75;;;16.20;68.70;;;;;;4843923;29;20037;-81
2022/12/25 06:29:08;;;;;;;17.25;6.57;;;16.30;68.70;;;;;;4844920;29;20524;-82
2022/12/25 06:31:34;;;;;;;13.82;6.10;;;16.30;68.70;;;;;;4845403;29;20049;-82
2022/12/25 06:34:00;;;;;;;11.10;5.55;;;16.40;68.80;;;;;;4829073;29;20057;-83
2022/12/25 06:36:26;;;;;;;13.05;5.80;;;16.40;68.80;;;;;;4828606;29;20068;-82
2022/12/25 06:39:08;;;;;;;11.93;5.30;;;16.50;68.80;;;;;;4828154;29;20073;-85
2022/12/25 06:41:37;;;;;;;15.05;6.28;;;16.60;68.50;;;;;;4828813;29;20038;-78
2022/12/25 06:44:03;;;;;;;21.30;7.03;;;16.50;68.40;;;;;;4844860;29;20439;-76
2022/12/25 06:46:29;;;;;;;20.70;6.30;;;16.50;68.40;;;;;;4844887;29;20045;-76
2022/12/25 06:48:57;;;;;;;14.55;5.50;;;16.50;68.40;;;;;;4844711;29;20050;-76
2022/12/25 06:51:25;;;;;;;18.00;5.82;;;16.50;68.40;;;;;;4843428;29;20049;-75
2022/12/25 06:53:52;;;;;;;16.42;5.97;;;16.50;68.40;;;;;;4844304;29;20053;-75
2022/12/25 06:56:21;;;;;;;12.65;5.47;;;16.50;68.50;;;;;;4844361;29;20050;-78
2022/12/25 06:58:51;;;;;;;15.10;5.20;;;16.50;68.60;;;;;;4859915;29;20056;-76
2022/12/25 07:01:29;;;;;;;12.95;5.10;;;16.50;68.70;;;;;;4853838;29;20145;-75
2022/12/25 07:04:01;;;;;;;14.60;4.88;;;16.40;68.70;;;;;;4852911;29;20069;-82
2022/12/25 07:06:28;;;;;;;13.43;5.38;;;16.30;68.60;;;;;;4852301;29;20057;-75
2022/12/25 07:08:53;;;;;;;13.65;5.07;;;16.30;68.70;;;;;;4853755;29;20120;-75
2022/12/25 07:11:20;;;;;;;10.45;4.65;;;16.30;69.50;;;;;;4852371;29;20236;-75
2022/12/25 07:13:46;;;;;;;14.52;5.28;;;16.20;69.00;;;;;;4853414;29;20054;-75
2022/12/25 07:16:12;;;;;;;11.77;4.80;;;16.20;69.10;;;;;;4849182;29;20049;-74
2022/12/25 07:18:38;;;;;;;14.02;4.95;;;16.10;69.20;;;;;;4849910;29;20049;-74
2022/12/25 07:21:09;;;;;;;12.00;4.70;;;16.10;69.30;;;;;;4850590;29;20042;-74
2022/12/25 07:23:36;;;;;;;9.13;4.53;;;16.00;69.60;;;;;;4847329;29;20385;-75
2022/12/25 07:26:02;;;;;;;9.63;4.40;;;15.90;69.80;;;;;;4849302;29;20054;-73
2022/12/25 07:28:29;;;;;;;9.82;3.95;;;15.90;69.80;;;;;;4848218;29;20052;-75
2022/12/25 07:30:59;;;;;;;9.48;4.75;;;15.80;69.60;;;;;;4848050;29;20042;-75
2022/12/25 07:33:32;;;;;;;12.07;7.57;;;15.80;69.70;;;;;;4841221;29;20057;-85
2022/12/25 07:35:57;;;;;;;15.73;9.07;;;15.80;69.50;;;;;;4846179;29;20065;-79
2022/12/25 07:38:23;;;;;;;19.83;11.13;;;15.80;69.00;;;;;;4846366;29;20046;-75
2022/12/25 07:40:49;;;;;;;13.25;10.05;;;15.70;68.40;;;;;;4850587;29;20051;-77
2022/12/25 07:43:15;;;;;;;14.50;10.48;;;15.70;68.00;;;;;;4851905;29;20069;-73
2022/12/25 07:45:41;;;;;;;15.13;10.60;;;15.60;67.70;;;;;;4850229;29;20371;-76
2022/12/25 07:48:07;;;;;;;14.77;10.00;;;15.60;68.00;;;;;;4848355;29;20049;-75
2022/12/25 07:50:33;;;;;;;16.92;10.57;;;15.50;68.10;;;;;;4843354;29;20053;-73
2022/12/25 07:52:59;;;;;;;15.75;9.25;;;15.50;68.50;;;;;;4844037;29;20106;-75
2022/12/25 07:55:24;;;;;;;16.60;8.55;;;15.50;68.50;;;;;;4827861;29;20065;-76
2022/12/25 07:57:50;;;;;;;18.63;7.90;;;15.50;68.50;;;;;;4854942;29;20053;-76
2022/12/25 08:00:16;;;;;;;29.40;8.10;;;15.60;68.60;;;;;;4847842;29;20049;-76
2022/12/25 08:02:42;;;;;;;22.88;8.07;;;15.70;68.80;;;;;;4850322;29;20395;-76
2022/12/25 08:05:08;;;;;;;18.65;7.63;;;15.80;68.80;;;;;;4851063;29;20096;-75
2022/12/25 08:07:34;;;;;;;17.90;6.93;;;15.90;69.00;;;;;;4847961;29;20049;-76
2022/12/25 08:10:03;;;;;;;18.90;6.60;;;15.90;69.10;;;;;;4841489;29;20061;-75
2022/12/25 08:12:29;;;;;;;20.13;6.70;;;16.00;69.50;;;;;;4853843;29;20119;-77
2022/12/25 08:14:55;;;;;;;18.70;5.97;;;16.00;69.60;;;;;;4853964;29;20042;-76
2022/12/25 08:17:20;;;;;;;24.05;6.88;;;16.10;69.70;;;;;;4848314;29;20105;-75
2022/12/25 08:19:46;;;;;;;15.60;6.65;;;16.10;69.90;;;;;;4848569;29;20073;-76
2022/12/25 08:22:12;;;;;;;26.98;5.53;;;16.10;70.00;;;;;;4862158;29;20060;-76
2022/12/25 08:24:37;;;;;;;30.23;6.20;;;16.10;70.00;;;;;;4861870;29;20085;-77
2022/12/25 08:27:03;;;;;;;21.67;6.38;;;16.10;70.20;;;;;;4837298;29;20483;-76
2022/12/25 08:29:29;;;;;;;25.25;5.72;;;16.10;70.30;;;;;;4827986;29;20066;-75
2022/12/25 08:31:55;;;;;;;27.50;5.95;;;16.10;70.50;;;;;;4849736;29;20041;-72
2022/12/25 08:34:21;;;;;;;22.48;7.70;;;16.10;70.60;;;;;;4857980;29;20370;-74
2022/12/25 08:36:47;;;;;;;28.70;6.15;;;16.10;70.60;;;;;;4844369;29;20062;-77
2022/12/25 08:39:13;;;;;;;20.95;6.07;;;16.10;70.60;;;;;;4847195;29;20137;-76
2022/12/25 08:41:39;;;;;;;20.63;5.15;;;16.10;70.60;;;;;;4846683;29;20483;-76
2022/12/25 08:44:05;;;;;;;15.88;5.25;;;16.10;70.70;;;;;;4846820;29;20110;-77
2022/12/25 08:46:31;;;;;;;23.92;5.75;;;16.10;70.80;;;;;;4846842;29;20061;-75
2022/12/25 08:48:58;;;;;;;24.05;5.15;;;16.10;70.80;;;;;;4846427;29;20054;-77
2022/12/25 08:51:25;;;;;;;21.98;5.13;;;16.20;70.90;;;;;;4838929;29;20057;-77
2022/12/25 08:53:52;;;;;;;26.58;4.97;;;16.20;70.90;;;;;;4844151;29;20128;-76
2022/12/25 08:56:19;;;;;;;24.95;5.50;;;16.30;70.90;;;;;;4843660;29;20422;-80
2022/12/25 08:58:45;;;;;;;18.45;5.40;;;16.30;70.60;;;;;;4846308;29;20134;-79
2022/12/25 09:01:12;;;;;;;21.80;5.90;;;16.30;70.20;;;;;;4829892;29;20051;-76
2022/12/25 09:03:38;;;;;;;18.63;6.25;;;16.30;69.80;;;;;;4830444;29;20049;-77
2022/12/25 09:06:12;;;;;;;19.13;5.88;;;16.30;69.40;;;;;;4846718;29;20121;-76
2022/12/25 09:08:38;;;;;;;21.25;6.43;;;16.20;69.50;;;;;;4846387;29;20049;-76
2022/12/25 09:11:06;;;;;;;19.65;6.95;;;16.10;69.90;;;;;;4846389;29;20050;-77
2022/12/25 09:13:33;;;;;;;15.85;5.38;;;16.10;69.20;;;;;;4845883;29;20062;-77
2022/12/25 09:15:59;;;;;;;15.07;6.07;;;16.00;68.60;;;;;;4846052;29;20123;-75
2022/12/25 09:18:25;;;;;;;11.30;4.85;;;16.00;68.30;;;;;;4846595;29;20103;-77
2022/12/25 09:21:03;;;;;;;13.75;4.93;;;16.00;68.10;;;;;;4846492;29;20050;-79
2022/12/25 09:23:29;;;;;;;12.90;4.93;;;16.00;68.00;;;;;;4826993;29;20062;-77
2022/12/25 09:25:58;;;;;;;12.85;4.82;;;15.90;68.00;;;;;;4842500;29;20060;-76
2022/12/25 09:28:24;;;;;;;15.55;4.68;;;15.90;68.00;;;;;;4846358;29;20056;-78
2022/12/25 09:30:51;;;;;;;12.73;5.20;;;15.90;68.10;;;;;;4845735;29;20050;-77
2022/12/25 09:33:17;;;;;;;10.82;3.70;;;15.80;68.00;;;;;;4830668;29;20050;-76
2022/12/25 09:35:43;;;;;;;8.55;4.45;;;15.90;68.00;;;;;;4845510;29;20085;-77
2022/12/25 09:38:09;;;;;;;10.90;4.40;;;15.80;68.00;;;;;;4829648;29;20105;-76
2022/12/25 09:40:35;;;;;;;11.75;3.60;;;15.80;68.00;;;;;;4845905;29;20042;-77
2022/12/25 09:43:02;;;;;;;9.30;3.80;;;15.80;67.90;;;;;;4845912;29;20111;-77
2022/12/25 09:45:35;;;;;;;6.68;3.63;;;15.80;67.90;;;;;;4846213;29;20133;-76
2022/12/25 09:48:01;;;;;;;7.25;3.40;;;15.80;67.80;;;;;;4829740;29;20134;-77
2022/12/25 09:50:47;;;;;;;9.70;4.32;;;15.80;67.80;;;;;;4845894;29;20054;-76
2022/12/25 09:53:26;;;;;;;6.13;3.10;;;15.70;67.70;;;;;;4845720;29;20057;-78
2022/12/25 09:56:02;;;;;;;8.80;3.10;;;15.80;67.80;;;;;;4829816;29;20066;-77
2022/12/25 09:58:29;;;;;;;8.43;3.70;;;15.70;67.80;;;;;;4829751;29;20053;-75
2022/12/25 10:01:11;;;;;;;7.93;3.00;;;15.70;67.80;;;;;;4845596;29;20421;-76
2022/12/25 10:03:40;;;;;;;8.20;3.33;;;15.70;67.80;;;;;;4845750;29;20154;-76
2022/12/25 10:06:17;;;;;;;7.32;2.85;;;15.70;68.00;;;;;;4845860;29;20050;-78
2022/12/25 10:09:10;;;;;;;5.95;3.17;;;15.60;67.80;;;;;;4845703;29;20089;-79
2022/12/25 10:11:44;;;;;;;10.43;3.47;;;15.60;67.80;;;;;;4845420;29;20089;-77
2022/12/25 10:14:40;;;;;;;7.95;3.33;;;15.60;67.70;;;;;;4845160;29;20049;-78
2022/12/25 10:17:30;;;;;;;6.88;2.95;;;15.60;67.70;;;;;;4829282;29;20057;-76
2022/12/25 10:20:02;;;;;;;7.63;3.00;;;15.60;67.80;;;;;;4845787;29;20368;-77
2022/12/25 10:22:34;;;;;;;5.93;2.83;;;15.60;67.80;;;;;;4845253;29;20093;-76
2022/12/25 10:25:01;;;;;;;6.20;2.88;;;15.60;67.90;;;;;;4829349;29;20451;-75
2022/12/25 10:27:35;;;;;;;3.17;2.40;;;15.50;67.80;;;;;;4814062;29;20057;-77
2022/12/25 10:30:05;;;;;;;6.78;3.50;;;15.50;67.90;;;;;;4844437;29;20459;-78
2022/12/25 10:32:32;;;;;;;5.30;2.70;;;15.50;68.00;;;;;;4829580;29;20057;-76
2022/12/25 10:34:58;;;;;;;5.05;2.42;;;15.50;68.00;;;;;;4845041;29;20050;-78
2022/12/25 10:37:24;;;;;;;7.20;3.00;;;15.50;68.00;;;;;;4828880;29;20110;-77
2022/12/25 10:39:50;;;;;;;5.80;3.08;;;15.50;68.10;;;;;;4845209;29;20387;-76
2022/12/25 10:42:41;;;;;;;6.13;2.78;;;15.40;68.00;;;;;;4829141;29;20060;-76
2022/12/25 10:45:08;;;;;;;5.65;2.53;;;15.50;68.10;;;;;;4829034;29;20065;-77
2022/12/25 10:47:37;;;;;;;4.05;2.53;;;15.40;68.10;;;;;;4845082;29;20061;-76
2022/12/25 10:50:23;;;;;;;5.50;2.75;;;15.40;68.10;;;;;;4844708;29;20098;-77
2022/12/25 10:53:15;;;;;;;5.05;2.33;;;15.40;68.20;;;;;;4844936;29;20042;-77
2022/12/25 10:55:41;;;;;;;7.63;2.72;;;15.40;68.20;;;;;;4844827;29;20050;-76
2022/12/25 10:58:17;;;;;;;4.78;2.72;;;15.30;68.30;;;;;;4844921;29;20058;-77
2022/12/25 11:00:52;;;;;;;5.32;3.38;;;15.30;68.30;;;;;;4828507;29;20053;-77
2022/12/25 11:03:24;;;;;;;7.43;2.83;;;15.30;68.40;;;;;;4845027;29;20065;-77
2022/12/25 11:05:50;;;;;;;6.22;3.15;;;15.30;68.40;;;;;;4844352;29;20054;-77
2022/12/25 11:08:21;;;;;;;4.78;2.35;;;15.30;68.40;;;;;;4845046;29;20043;-76
2022/12/25 11:11:04;;;;;;;4.70;2.38;;;15.30;68.50;;;;;;4828769;29;20053;-75
2022/12/25 11:13:38;;;;;;;4.00;2.40;;;15.30;68.50;;;;;;4844417;29;20058;-76
2022/12/25 11:16:12;;;;;;;3.65;2.65;;;15.20;68.50;;;;;;4844076;29;20107;-76
2022/12/25 11:18:50;;;;;;;5.93;2.97;;;15.20;68.50;;;;;;4828791;29;20141;-76
2022/12/25 11:21:21;;;;;;;4.40;2.83;;;15.20;68.50;;;;;;4844540;29;20050;-76
2022/12/25 11:23:54;;;;;;;5.43;2.60;;;15.20;68.60;;;;;;4844458;29;20053;-76
2022/12/25 11:26:20;;;;;;;5.18;3.13;;;15.20;68.70;;;;;;4844468;29;20045;-76
2022/12/25 11:28:49;;;;;;;4.60;2.17;;;15.20;68.70;;;;;;4844392;29;20375;-76
2022/12/25 11:31:20;;;;;;;6.20;3.13;;;15.10;68.60;;;;;;4844587;29;20054;-76
2022/12/25 11:34:12;;;;;;;6.50;3.22;;;15.10;68.60;;;;;;4844160;29;20448;-76
2022/12/25 11:36:49;;;;;;;4.60;2.40;;;15.10;68.70;;;;;;4844217;29;20058;-76
2022/12/25 11:39:27;;;;;;;4.05;2.50;;;15.10;68.70;;;;;;4843975;29;20058;-76
2022/12/25 11:41:59;;;;;;;4.35;2.55;;;15.10;68.80;;;;;;4844186;29;20046;-75
2022/12/25 11:44:36;;;;;;;2.80;1.88;;;15.10;68.80;;;;;;4828291;29;20073;-77
2022/12/25 11:47:32;;;;;;;4.53;2.30;;;15.10;68.80;;;;;;4844100;29;20140;-77
2022/12/25 11:50:12;;;;;;;4.47;2.85;;;15.10;68.80;;;;;;4830637;29;20062;-77
2022/12/25 11:52:41;;;;;;;4.07;2.28;;;15.00;68.80;;;;;;4844018;29;20054;-76
2022/12/25 11:55:15;;;;;;;4.35;2.60;;;15.00;68.90;;;;;;4844159;29;20056;-76
2022/12/25 11:57:45;;;;;;;4.63;2.40;;;15.00;68.90;;;;;;4844191;29;20062;-77
2022/12/25 12:00:14;;;;;;;4.38;2.38;;;15.00;68.90;;;;;;4844199;29;20117;-78
2022/12/25 12:03:02;;;;;;;4.47;2.30;;;15.00;68.90;;;;;;4843595;29;20058;-76
2022/12/25 12:05:46;;;;;;;3.80;2.60;;;15.00;69.00;;;;;;4843890;29;20056;-77
2022/12/25 12:08:13;;;;;;;5.00;1.98;;;15.00;69.00;;;;;;4844415;29;20381;-78
2022/12/25 12:10:41;;;;;;;4.47;2.38;;;15.00;69.00;;;;;;4844757;29;20597;-75
2022/12/25 12:13:28;;;;;;;3.60;2.33;;;15.00;69.10;;;;;;4847425;29;20050;-75
2022/12/25 12:15:55;;;;;;;4.55;2.70;;;15.00;69.10;;;;;;4847543;29;20053;-78
2022/12/25 12:18:20;;;;;;;4.40;2.22;;;15.00;69.10;;;;;;4847688;29;20062;-75
2022/12/25 12:20:58;;;;;;;4.22;2.42;;;14.90;69.10;;;;;;4847905;29;20068;-78
2022/12/25 12:23:25;;;;;;;6.10;2.50;;;14.90;69.20;;;;;;4847406;29;20125;-74
2022/12/25 12:25:52;;;;;;;3.78;2.20;;;14.90;69.10;;;;;;4847012;29;20053;-76
2022/12/25 12:28:25;;;;;;;5.55;2.22;;;14.90;69.10;;;;;;4847209;29;20129;-76
2022/12/25 12:31:05;;;;;;;3.78;1.83;;;14.90;69.20;;;;;;4847960;29;20387;-77
2022/12/25 12:33:40;;;;;;;2.95;2.20;;;14.90;69.20;;;;;;4846995;29;20074;-75
2022/12/25 12:36:09;;;;;;;2.53;2.10;;;14.90;69.20;;;;;;4846940;29;20112;-76
2022/12/25 12:38:35;;;;;;;5.03;2.70;;;14.90;69.30;;;;;;4847314;29;20133;-76
2022/12/25 12:41:05;;;;;;;3.65;2.25;;;14.90;69.30;;;;;;4846816;29;20042;-77
2022/12/25 12:43:41;;;;;;;4.32;2.40;;;14.90;69.30;;;;;;4846821;29;20132;-76
2022/12/25 12:46:18;;;;;;;3.05;2.28;;;14.90;69.40;;;;;;4830918;29;20045;-78
2022/12/25 12:48:47;;;;;;;2.38;1.98;;;14.80;69.30;;;;;;4846930;29;20064;-76
2022/12/25 12:51:27;;;;;;;2.88;2.13;;;14.80;69.90;;;;;;4846105;29;20081;-76
2022/12/25 12:54:04;;;;;;;4.93;2.70;;;14.80;69.40;;;;;;4836204;29;20140;-78
2022/12/25 12:56:30;;;;;;;8.20;3.25;;;14.80;69.40;;;;;;4846802;29;20054;-73
2022/12/25 12:58:56;;;;;;;11.38;4.32;;;14.80;69.60;;;;;;4846463;29;20523;-73
2022/12/25 13:01:40;;;;;;;15.68;4.55;;;14.80;69.50;;;;;;4831243;29;20053;-75
2022/12/25 13:04:35;;;;;;;;;;;14.70;70.10;;;;;;4830205;29;20045;-84
2022/12/25 13:07:31;;;;;;;10.75;4.05;;;14.70;69.50;;;;;;4841350;29;19924;-84
2022/12/25 13:10:02;;;;;;;11.00;3.13;;;14.70;69.80;;;;;;4837124;29;20045;-82
2022/12/25 13:12:28;;;;;;;9.82;3.47;;;14.70;70.00;;;;;;4830029;29;20042;-81
2022/12/25 13:14:54;;;;;;;8.88;3.13;;;14.80;70.10;;;;;;4830115;29;20078;-82
2022/12/25 13:17:23;;;;;;;10.95;2.83;;;14.90;70.20;;;;;;4847660;29;20049;-82
2022/12/25 13:20:01;;;;;;;11.98;3.22;;;15.00;70.50;;;;;;4840907;29;20054;-81
2022/12/25 13:22:32;;;;;;;15.57;2.70;;;15.20;70.50;;;;;;4846072;29;20117;-82
2022/12/25 13:25:03;;;;;;;14.45;2.90;;;15.30;70.30;;;;;;4846343;29;20050;-74
2022/12/25 13:27:31;;;;;;;19.77;4.05;;;15.30;70.20;;;;;;4846048;29;20049;-74
2022/12/25 13:29:58;;;;;;;12.75;2.97;;;15.40;70.30;;;;;;4846055;29;20111;-74
2022/12/25 13:32:29;;;;;;;20.70;3.53;;;15.50;70.60;;;;;;4853595;29;20141;-74
2022/12/25 13:34:55;;;;;;;14.75;3.28;;;15.40;70.20;;;;;;4851398;29;20095;-74
2022/12/25 13:37:27;;;;;;;13.05;2.97;;;15.40;70.30;;;;;;4854199;29;20061;-74
2022/12/25 13:40:02;;;;;;;14.20;2.72;;;15.40;70.30;;;;;;4850550;29;20062;-82
2022/12/25 13:42:35;;;;;;;11.27;2.88;;;15.50;70.50;;;;;;4829860;29;20049;-78
2022/12/25 13:45:04;;;;;;;6.00;2.80;;;15.50;70.40;;;;;;4845675;29;20718;-78
2022/12/25 13:47:32;;;;;;;8.00;2.15;;;15.60;70.50;;;;;;4839260;29;20050;-78
2022/12/25 13:50:18;;;;;;;8.32;2.33;;;15.60;70.50;;;;;;4837663;29;20046;-78
2022/12/25 13:52:44;;;;;;;10.02;2.10;;;15.70;70.60;;;;;;4846583;29;20085;-78
2022/12/25 13:55:13;;;;;;;14.32;2.45;;;15.70;70.50;;;;;;4845495;29;20089;-75
2022/12/25 13:57:59;;;;;;;7.63;2.40;;;15.80;70.50;;;;;;4833981;29;20168;-78
2022/12/25 14:00:37;;;;;;;10.57;2.65;;;15.70;70.60;;;;;;4851344;29;20057;-80
2022/12/25 14:03:06;;;;;;;13.63;2.92;;;15.90;70.70;;;;;;4851962;29;20475;-78
2022/12/25 14:05:37;;;;;;;11.05;2.15;;;16.00;70.50;;;;;;4844347;29;20078;-79
2022/12/25 14:08:13;;;;;;;10.63;2.38;;;16.00;70.60;;;;;;4845030;29;20375;-78
2022/12/25 14:10:40;;;;;;;8.10;2.13;;;16.10;71.60;;;;;;4845628;29;20138;-81
2022/12/25 14:13:11;;;;;;;13.63;2.05;;;16.20;70.80;;;;;;4845039;29;20046;-81
2022/12/25 14:15:38;;;;;;;15.10;2.88;;;16.30;70.40;;;;;;4845255;29;20054;-76
2022/12/25 14:18:07;;;;;;;14.35;2.90;;;16.30;70.30;;;;;;4832860;29;20060;-78
2022/12/25 14:20:40;;;;;;;10.95;2.53;;;16.40;70.40;;;;;;4826989;29;20511;-78
2022/12/25 14:23:06;;;;;;;14.48;2.60;;;16.40;70.60;;;;;;4835194;29;20041;-81
2022/12/25 14:26:05;;;;;;;8.63;2.30;;;16.40;70.60;;;;;;4808217;29;20061;-80
2022/12/25 14:28:37;;;;;;;14.23;3.17;;;16.30;69.10;;;;;;4808369;29;20057;-78
2022/12/25 14:31:03;;;;;;;12.88;2.78;;;16.30;70.80;;;;;;4845106;29;20049;-79
2022/12/25 14:33:35;;;;;;;11.82;3.30;;;16.30;70.90;;;;;;4844157;29;20122;-77
2022/12/25 14:36:01;;;;;;;6.65;3.75;;;16.40;70.80;;;;;;4844408;29;20066;-76
2022/12/25 14:38:33;;;;;;;9.63;3.55;;;16.40;70.20;;;;;;4844513;29;20049;-76
2022/12/25 14:41:04;;;;;;;8.07;4.05;;;16.30;69.50;;;;;;4844889;29;20050;-73
2022/12/25 14:43:31;;;;;;;8.38;3.92;;;16.30;68.80;;;;;;4844929;29;20050;-70
2022/12/25 14:46:04;;;;;;;8.48;3.83;;;16.20;68.50;;;;;;4845661;29;20125;-75
2022/12/25 14:48:31;;;;;;;11.48;3.30;;;16.20;68.50;;;;;;4845243;29;20121;-74
2022/12/25 14:51:02;;;;;;;11.98;3.80;;;16.30;68.60;;;;;;4842590;29;20050;-77
2022/12/25 14:53:47;;;;;;;7.07;3.40;;;16.30;68.90;;;;;;4850675;29;20042;-74
2022/12/25 14:56:18;;;;;;;10.27;2.90;;;16.30;69.40;;;;;;4846081;29;20060;-72
2022/12/25 14:58:55;;;;;;;10.70;3.05;;;16.30;69.60;;;;;;4863272;29;20057;-75
2022/12/25 15:01:30;;;;;;;14.35;4.28;;;16.40;69.90;;;;;;4855060;29;20045;-81
2022/12/25 15:04:11;;;;;;;18.42;3.65;;;16.40;72.00;;;;;;4846962;29;20124;-75
2022/12/25 15:07:05;;;;;;;7.43;3.22;;;16.40;71.40;;;;;;4843520;29;20385;-76
2022/12/25 15:09:32;;;;;;;14.43;2.65;;;16.50;71.70;;;;;;4844365;29;20056;-80
2022/12/25 15:11:58;;;;;;;11.57;3.13;;;16.40;71.90;;;;;;4832361;29;20061;-83
2022/12/25 15:14:25;;;;;;;14.85;2.88;;;16.40;72.30;;;;;;4829448;29;20483;-80
2022/12/25 15:16:55;;;;;;;19.23;2.90;;;16.50;72.90;;;;;;4847238;29;20054;-80
2022/12/25 15:19:29;;;;;;;6.72;2.55;;;16.50;73.40;;;;;;4828400;29;20050;-81
2022/12/25 15:21:58;;;;;;;8.13;2.60;;;16.50;73.60;;;;;;4828443;29;20145;-80
2022/12/25 15:24:24;;;;;;;9.57;2.17;;;16.50;74.30;;;;;;4828875;29;20060;-80
2022/12/25 15:26:52;;;;;;;10.82;2.05;;;16.40;74.70;;;;;;4828725;29;20053;-82
2022/12/25 15:29:18;;;;;;;11.50;2.45;;;16.40;75.40;;;;;;4827365;29;20475;-81
2022/12/25 15:31:44;;;;;;;7.50;2.08;;;16.40;75.10;;;;;;4844870;29;20081;-82
2022/12/25 15:34:20;;;;;;;5.07;1.50;;;16.30;75.30;;;;;;4823398;29;20128;-82
2022/12/25 15:36:46;;;;;;;7.55;1.85;;;16.30;75.50;;;;;;4846002;29;20435;-81
2022/12/25 15:39:26;;;;;;;6.70;1.75;;;16.30;75.50;;;;;;4831178;29;20055;-84
2022/12/25 15:45:00;;;;;;;51.08;22.92;;;16.30;76.00;;;;;;4825271;29;20357;-85
2022/12/25 15:47:32;;;;;;;24.88;11.30;;;16.20;76.00;;;;;;4824983;29;20046;-84
2022/12/25 15:53:31;;;;;;;23.95;8.90;;;16.30;76.50;;;;;;4843503;29;20474;-77
2022/12/25 15:55:57;;;;;;;24.20;8.50;;;16.20;76.40;;;;;;4843981;29;20034;-83
2022/12/25 15:58:22;;;;;;;19.65;7.85;;;16.20;76.20;;;;;;4827479;29;20037;-81
2022/12/25 16:00:49;;;;;;;22.05;7.57;;;16.20;76.10;;;;;;4844065;29;20089;-82
2022/12/25 16:03:15;;;;;;;27.70;7.28;;;16.10;76.10;;;;;;4843102;29;20389;-79
2022/12/25 16:05:41;;;;;;;25.73;6.57;;;16.10;75.60;;;;;;4844164;29;20061;-83
2022/12/25 16:08:07;;;;;;;19.23;6.00;;;16.10;76.00;;;;;;4827755;29;20046;-80
2022/12/25 16:10:33;;;;;;;24.25;6.72;;;16.10;75.80;;;;;;4827688;29;20475;-81
2022/12/25 16:12:59;;;;;;;18.90;5.65;;;16.10;75.80;;;;;;4813439;29;20046;-80
2022/12/25 16:15:24;;;;;;;15.63;4.90;;;16.10;75.70;;;;;;4846140;29;20049;-82
2022/12/25 16:17:50;;;;;;;19.15;5.10;;;16.10;75.50;;;;;;4829337;29;20050;-82
2022/12/25 16:20:16;;;;;;;15.90;5.82;;;16.10;75.20;;;;;;4812786;29;20054;-81
2022/12/25 16:22:41;;;;;;;17.67;5.45;;;16.10;74.80;;;;;;4827342;29;20050;-75
2022/12/25 16:25:16;;;;;;;12.65;4.85;;;16.10;74.60;;;;;;4827233;29;20042;-79
2022/12/25 16:27:42;;;;;;;12.63;5.75;;;16.10;74.30;;;;;;4843686;29;20114;-78
2022/12/25 16:30:11;;;;;;;13.10;6.72;;;16.20;74.00;;;;;;4843634;29;20053;-79
2022/12/25 16:32:36;;;;;;;14.63;6.80;;;16.20;73.40;;;;;;4827858;29;20089;-78
2022/12/25 16:35:03;;;;;;;13.07;6.50;;;16.20;72.90;;;;;;4830727;29;20096;-76
2022/12/25 16:37:31;;;;;;;12.23;6.53;;;16.20;72.30;;;;;;4845588;29;20062;-81
2022/12/25 16:39:57;;;;;;;16.30;7.38;;;16.10;71.80;;;;;;4825577;29;20375;-74
2022/12/25 16:42:23;;;;;;;14.25;6.90;;;16.10;71.50;;;;;;4825033;29;20174;-80
2022/12/25 16:44:48;;;;;;;15.25;6.93;;;16.10;71.20;;;;;;4842892;29;20054;-78
2022/12/25 16:47:14;;;;;;;18.33;7.25;;;16.10;70.90;;;;;;4843569;29;20069;-79
2022/12/25 16:49:40;;;;;;;17.95;6.90;;;16.00;70.70;;;;;;4827312;29;20054;-82
2022/12/25 16:52:05;;;;;;;11.27;6.43;;;16.00;70.80;;;;;;4843451;29;20046;-79
2022/12/25 16:54:31;;;;;;;16.10;6.60;;;15.90;70.80;;;;;;4827283;29;20049;-79
2022/12/25 16:56:57;;;;;;;16.85;6.78;;;15.90;70.80;;;;;;4843599;29;20072;-80
2022/12/25 16:59:23;;;;;;;11.82;5.60;;;15.90;70.90;;;;;;4830726;29;20049;-81
2022/12/25 17:01:48;;;;;;;16.58;7.25;;;15.90;71.00;;;;;;4830205;29;20061;-81
2022/12/25 17:04:14;;;;;;;15.20;6.03;;;15.90;71.60;;;;;;4859996;29;20363;-83
2022/12/25 17:06:40;;;;;;;14.35;6.07;;;15.90;71.10;;;;;;4833866;29;20045;-79
2022/12/25 17:09:06;;;;;;;22.98;6.05;;;15.90;71.50;;;;;;4846974;29;20054;-79
2022/12/25 17:11:32;;;;;;;16.92;6.10;;;15.80;71.60;;;;;;4846513;29;20056;-76
2022/12/25 17:14:01;;;;;;;13.93;4.85;;;15.80;71.70;;;;;;4846675;29;20045;-77
2022/12/25 17:16:29;;;;;;;14.52;5.78;;;15.80;71.80;;;;;;4830531;29;20081;-79
